sensor_id;sensor_type;location;lat;lon;timestamp;temperature;humidity
4461;DHT22;2243;48.812;9.232;2023-07-30T00:00:35;18.60;99.90
4461;DHT22;2243;48.812;9.232;2023-07-30T00:03:06;18.60;99.90
4461;DHT22;2243;48.812;9.232;2023-07-30T00:05:37;18.60;99.90
4461;DHT22;2243;48.812;9.232;2023-07-30T00:08:08;18.50;99.90
4461;DHT22;2243;48.812;9.232;2023-07-30T00:10:39;18.60;99.90
4461;DHT22;2243;48.812;9.232;2023-07-30T00:13:10;18.50;99.90
4461;DHT22;2243;48.812;9.232;2023-07-30T00:15:41;18.60;99.90
4461;DHT22;2243;48.812;9.232;2023-07-30T00:18:12;18.50;99.90
4461;DHT22;2243;48.812;9.232;2023-07-30T00:20:43;18.60;99.90
4461;DHT22;2243;48.812;9.232;2023-07-30T00:23:14;18.60;99.90
4461;DHT22;2243;48.812;9.232;2023-07-30T00:25:45;18.60;99.90
4461;DHT22;2243;48.812;9.232;2023-07-30T00:28:16;18.50;99.90
4461;DHT22;2243;48.812;9.232;2023-07-30T00:30:47;18.70;99.90
4461;DHT22;2243;48.812;9.232;2023-07-30T00:33:18;18.70;99.90
4461;DHT22;2243;48.812;9.232;2023-07-30T00:35:51;18.70;99.90
4461;DHT22;2243;48.812;9.232;2023-07-30T00:38:23;18.70;99.90
4461;DHT22;2243;48.812;9.232;2023-07-30T00:40:54;18.60;99.90
4461;DHT22;2243;48.812;9.232;2023-07-30T00:43:26;18.40;99.90
4461;DHT22;2243;48.812;9.232;2023-07-30T00:45:57;18.40;99.90
4461;DHT22;2243;48.812;9.232;2023-07-30T00:48:28;18.30;99.90
4461;DHT22;2243;48.812;9.232;2023-07-30T00:51:00;18.60;99.90
4461;DHT22;2243;48.812;9.232;2023-07-30T00:53:31;18.50;99.90
4461;DHT22;2243;48.812;9.232;2023-07-30T00:56:02;18.50;99.90
4461;DHT22;2243;48.812;9.232;2023-07-30T00:58:33;18.50;99.90
4461;DHT22;2243;48.812;9.232;2023-07-30T01:01:05;18.70;99.90
4461;DHT22;2243;48.812;9.232;2023-07-30T01:03:36;18.60;99.90
4461;DHT22;2243;48.812;9.232;2023-07-30T01:06:07;18.40;99.90
4461;DHT22;2243;48.812;9.232;2023-07-30T01:08:38;18.30;99.90
4461;DHT22;2243;48.812;9.232;2023-07-30T01:11:10;18.30;99.90
4461;DHT22;2243;48.812;9.232;2023-07-30T01:13:41;18.30;99.90
4461;DHT22;2243;48.812;9.232;2023-07-30T01:16:16;18.40;99.90
4461;DHT22;2243;48.812;9.232;2023-07-30T01:18:47;18.30;99.90
4461;DHT22;2243;48.812;9.232;2023-07-30T01:21:18;18.30;99.90
4461;DHT22;2243;48.812;9.232;2023-07-30T01:23:50;18.30;99.90
4461;DHT22;2243;48.812;9.232;2023-07-30T01:26:24;18.30;99.90
4461;DHT22;2243;48.812;9.232;2023-07-30T01:29:00;18.30;99.90
4461;DHT22;2243;48.812;9.232;2023-07-30T01:31:33;18.30;99.90
4461;DHT22;2243;48.812;9.232;2023-07-30T01:34:07;18.30;99.90
4461;DHT22;2243;48.812;9.232;2023-07-30T01:36:40;18.40;99.90
4461;DHT22;2243;48.812;9.232;2023-07-30T01:39:12;18.40;99.90
4461;DHT22;2243;48.812;9.232;2023-07-30T01:41:43;18.40;99.90
4461;DHT22;2243;48.812;9.232;2023-07-30T01:44:14;18.40;99.90
4461;DHT22;2243;48.812;9.232;2023-07-30T01:46:45;18.40;99.90
4461;DHT22;2243;48.812;9.232;2023-07-30T01:49:16;18.50;99.90
4461;DHT22;2243;48.812;9.232;2023-07-30T01:51:47;18.50;99.90
4461;DHT22;2243;48.812;9.232;2023-07-30T01:54:18;18.40;99.90
4461;DHT22;2243;48.812;9.232;2023-07-30T01:56:51;18.40;99.90
4461;DHT22;2243;48.812;9.232;2023-07-30T01:59:22;18.40;99.90
4461;DHT22;2243;48.812;9.232;2023-07-30T02:01:53;18.50;99.90
4461;DHT22;2243;48.812;9.232;2023-07-30T02:04:24;18.50;99.90
4461;DHT22;2243;48.812;9.232;2023-07-30T02:06:55;18.50;99.90
4461;DHT22;2243;48.812;9.232;2023-07-30T02:09:26;18.50;99.90
4461;DHT22;2243;48.812;9.232;2023-07-30T02:11:57;18.50;99.90
4461;DHT22;2243;48.812;9.232;2023-07-30T02:14:28;18.50;99.90
4461;DHT22;2243;48.812;9.232;2023-07-30T02:16:59;18.60;99.90
4461;DHT22;2243;48.812;9.232;2023-07-30T02:19:30;18.60;99.90
4461;DHT22;2243;48.812;9.232;2023-07-30T02:22:01;18.70;99.90
4461;DHT22;2243;48.812;9.232;2023-07-30T02:24:32;18.70;99.90
4461;DHT22;2243;48.812;9.232;2023-07-30T02:27:03;18.80;99.90
4461;DHT22;2243;48.812;9.232;2023-07-30T02:29:34;18.90;99.90
4461;DHT22;2243;48.812;9.232;2023-07-30T02:32:06;18.90;99.90
4461;DHT22;2243;48.812;9.232;2023-07-30T02:34:37;19.00;99.90
4461;DHT22;2243;48.812;9.232;2023-07-30T02:37:08;19.00;99.90
4461;DHT22;2243;48.812;9.232;2023-07-30T02:39:39;19.10;99.90
4461;DHT22;2243;48.812;9.232;2023-07-30T02:42:11;19.00;99.90
4461;DHT22;2243;48.812;9.232;2023-07-30T02:44:42;18.90;99.90
4461;DHT22;2243;48.812;9.232;2023-07-30T02:47:13;19.00;99.90
4461;DHT22;2243;48.812;9.232;2023-07-30T02:49:44;19.00;99.90
4461;DHT22;2243;48.812;9.232;2023-07-30T02:52:15;18.90;99.90
4461;DHT22;2243;48.812;9.232;2023-07-30T02:54:46;18.80;99.90
4461;DHT22;2243;48.812;9.232;2023-07-30T02:57:17;18.70;99.90
4461;DHT22;2243;48.812;9.232;2023-07-30T02:59:48;18.70;99.90
4461;DHT22;2243;48.812;9.232;2023-07-30T03:02:19;18.70;99.90
4461;DHT22;2243;48.812;9.232;2023-07-30T03:04:50;18.70;99.90
4461;DHT22;2243;48.812;9.232;2023-07-30T03:07:21;18.60;99.90
4461;DHT22;2243;48.812;9.232;2023-07-30T03:09:52;18.60;99.90
4461;DHT22;2243;48.812;9.232;2023-07-30T03:12:23;18.60;99.90
4461;DHT22;2243;48.812;9.232;2023-07-30T03:14:54;18.70;99.90
4461;DHT22;2243;48.812;9.232;2023-07-30T03:17:25;18.60;99.90
4461;DHT22;2243;48.812;9.232;2023-07-30T03:19:56;18.60;99.90
4461;DHT22;2243;48.812;9.232;2023-07-30T03:22:27;18.50;99.90
4461;DHT22;2243;48.812;9.232;2023-07-30T03:24:58;18.60;99.90
4461;DHT22;2243;48.812;9.232;2023-07-30T03:27:29;18.70;99.90
4461;DHT22;2243;48.812;9.232;2023-07-30T03:30:00;18.90;99.90
4461;DHT22;2243;48.812;9.232;2023-07-30T03:32:31;18.90;99.90
4461;DHT22;2243;48.812;9.232;2023-07-30T03:35:02;19.00;99.90
4461;DHT22;2243;48.812;9.232;2023-07-30T03:37:33;19.00;99.90
4461;DHT22;2243;48.812;9.232;2023-07-30T03:40:04;19.00;99.90
4461;DHT22;2243;48.812;9.232;2023-07-30T03:42:36;18.80;99.90
4461;DHT22;2243;48.812;9.232;2023-07-30T03:45:07;18.70;99.90
4461;DHT22;2243;48.812;9.232;2023-07-30T03:47:38;18.70;99.90
4461;DHT22;2243;48.812;9.232;2023-07-30T03:50:09;18.70;99.90
4461;DHT22;2243;48.812;9.232;2023-07-30T03:52:40;18.60;99.90
4461;DHT22;2243;48.812;9.232;2023-07-30T03:55:11;18.70;99.90
4461;DHT22;2243;48.812;9.232;2023-07-30T03:57:42;18.80;99.90
4461;DHT22;2243;48.812;9.232;2023-07-30T04:00:13;18.90;99.90
4461;DHT22;2243;48.812;9.232;2023-07-30T04:02:44;18.90;99.90
4461;DHT22;2243;48.812;9.232;2023-07-30T04:05:15;18.90;99.90
4461;DHT22;2243;48.812;9.232;2023-07-30T04:07:46;18.90;99.90
4461;DHT22;2243;48.812;9.232;2023-07-30T04:10:17;19.10;99.90
4461;DHT22;2243;48.812;9.232;2023-07-30T04:12:48;19.00;99.90
4461;DHT22;2243;48.812;9.232;2023-07-30T04:15:19;19.00;99.90
4461;DHT22;2243;48.812;9.232;2023-07-30T04:17:50;18.90;99.90
4461;DHT22;2243;48.812;9.232;2023-07-30T04:20:21;18.80;99.90
4461;DHT22;2243;48.812;9.232;2023-07-30T04:22:52;18.70;99.90
4461;DHT22;2243;48.812;9.232;2023-07-30T04:25:22;18.60;99.90
4461;DHT22;2243;48.812;9.232;2023-07-30T04:27:54;18.50;99.90
4461;DHT22;2243;48.812;9.232;2023-07-30T04:30:25;18.50;99.90
4461;DHT22;2243;48.812;9.232;2023-07-30T04:32:56;18.50;99.90
4461;DHT22;2243;48.812;9.232;2023-07-30T04:35:27;18.60;99.90
4461;DHT22;2243;48.812;9.232;2023-07-30T04:37:58;18.80;99.90
4461;DHT22;2243;48.812;9.232;2023-07-30T04:40:29;18.80;99.90
4461;DHT22;2243;48.812;9.232;2023-07-30T04:43:00;18.80;99.90
4461;DHT22;2243;48.812;9.232;2023-07-30T04:45:31;18.70;99.90
4461;DHT22;2243;48.812;9.232;2023-07-30T04:48:02;18.70;99.90
4461;DHT22;2243;48.812;9.232;2023-07-30T04:50:33;18.70;99.90
4461;DHT22;2243;48.812;9.232;2023-07-30T04:53:04;18.60;99.90
4461;DHT22;2243;48.812;9.232;2023-07-30T04:55:35;18.70;99.90
4461;DHT22;2243;48.812;9.232;2023-07-30T04:58:06;18.60;99.90
4461;DHT22;2243;48.812;9.232;2023-07-30T05:00:37;18.70;99.90
4461;DHT22;2243;48.812;9.232;2023-07-30T05:03:08;18.70;99.90
4461;DHT22;2243;48.812;9.232;2023-07-30T05:05:41;18.80;99.90
4461;DHT22;2243;48.812;9.232;2023-07-30T05:08:12;19.00;99.90
4461;DHT22;2243;48.812;9.232;2023-07-30T05:10:43;19.10;99.90
4461;DHT22;2243;48.812;9.232;2023-07-30T05:13:14;19.20;99.90
4461;DHT22;2243;48.812;9.232;2023-07-30T05:15:45;19.20;99.90
4461;DHT22;2243;48.812;9.232;2023-07-30T05:18:16;19.20;99.90
4461;DHT22;2243;48.812;9.232;2023-07-30T05:20:47;19.20;99.90
4461;DHT22;2243;48.812;9.232;2023-07-30T05:23:18;19.20;99.90
4461;DHT22;2243;48.812;9.232;2023-07-30T05:25:49;19.20;99.90
4461;DHT22;2243;48.812;9.232;2023-07-30T05:28:21;19.30;99.90
4461;DHT22;2243;48.812;9.232;2023-07-30T05:30:52;19.30;99.90
4461;DHT22;2243;48.812;9.232;2023-07-30T05:33:23;19.20;99.90
4461;DHT22;2243;48.812;9.232;2023-07-30T05:35:54;19.20;99.90
4461;DHT22;2243;48.812;9.232;2023-07-30T05:38:25;19.10;99.90
4461;DHT22;2243;48.812;9.232;2023-07-30T05:40:56;19.10;99.90
4461;DHT22;2243;48.812;9.232;2023-07-30T05:43:27;19.10;99.90
4461;DHT22;2243;48.812;9.232;2023-07-30T05:45:58;19.00;99.90
4461;DHT22;2243;48.812;9.232;2023-07-30T05:48:29;18.90;99.90
4461;DHT22;2243;48.812;9.232;2023-07-30T05:51:00;18.90;99.90
4461;DHT22;2243;48.812;9.232;2023-07-30T05:53:31;18.80;99.90
4461;DHT22;2243;48.812;9.232;2023-07-30T05:56:02;18.80;99.90
4461;DHT22;2243;48.812;9.232;2023-07-30T05:58:32;18.80;99.90
4461;DHT22;2243;48.812;9.232;2023-07-30T06:01:03;18.90;99.90
4461;DHT22;2243;48.812;9.232;2023-07-30T06:03:34;18.80;99.90
4461;DHT22;2243;48.812;9.232;2023-07-30T06:06:05;18.80;99.90
4461;DHT22;2243;48.812;9.232;2023-07-30T06:08:36;18.80;99.90
4461;DHT22;2243;48.812;9.232;2023-07-30T06:11:07;18.80;99.90
4461;DHT22;2243;48.812;9.232;2023-07-30T06:13:39;18.80;99.90
4461;DHT22;2243;48.812;9.232;2023-07-30T06:16:10;18.80;99.90
4461;DHT22;2243;48.812;9.232;2023-07-30T06:18:41;18.80;99.90
4461;DHT22;2243;48.812;9.232;2023-07-30T06:21:12;18.70;99.90
4461;DHT22;2243;48.812;9.232;2023-07-30T06:23:43;18.80;99.90
4461;DHT22;2243;48.812;9.232;2023-07-30T06:26:14;18.90;99.90
4461;DHT22;2243;48.812;9.232;2023-07-30T06:28:45;18.90;99.90
4461;DHT22;2243;48.812;9.232;2023-07-30T06:31:16;18.90;99.90
4461;DHT22;2243;48.812;9.232;2023-07-30T06:33:47;19.00;99.90
4461;DHT22;2243;48.812;9.232;2023-07-30T06:36:18;19.10;99.90
4461;DHT22;2243;48.812;9.232;2023-07-30T06:38:48;19.10;99.90
4461;DHT22;2243;48.812;9.232;2023-07-30T06:41:19;19.10;99.90
4461;DHT22;2243;48.812;9.232;2023-07-30T06:43:51;19.10;99.90
4461;DHT22;2243;48.812;9.232;2023-07-30T06:46:22;19.10;99.90
4461;DHT22;2243;48.812;9.232;2023-07-30T06:48:53;19.20;99.90
4461;DHT22;2243;48.812;9.232;2023-07-30T06:51:25;19.30;99.90
4461;DHT22;2243;48.812;9.232;2023-07-30T06:53:56;19.50;99.90
4461;DHT22;2243;48.812;9.232;2023-07-30T06:56:27;19.70;99.90
4461;DHT22;2243;48.812;9.232;2023-07-30T06:58:59;19.70;99.90
4461;DHT22;2243;48.812;9.232;2023-07-30T07:01:30;19.70;99.90
4461;DHT22;2243;48.812;9.232;2023-07-30T07:04:01;19.80;99.90
4461;DHT22;2243;48.812;9.232;2023-07-30T07:06:32;19.70;99.90
4461;DHT22;2243;48.812;9.232;2023-07-30T07:09:03;19.70;99.90
4461;DHT22;2243;48.812;9.232;2023-07-30T07:11:35;19.80;99.90
4461;DHT22;2243;48.812;9.232;2023-07-30T07:14:06;19.80;99.90
4461;DHT22;2243;48.812;9.232;2023-07-30T07:16:37;19.80;99.90
4461;DHT22;2243;48.812;9.232;2023-07-30T07:19:08;19.80;99.90
4461;DHT22;2243;48.812;9.232;2023-07-30T07:21:39;19.90;99.90
4461;DHT22;2243;48.812;9.232;2023-07-30T07:24:10;20.00;99.90
4461;DHT22;2243;48.812;9.232;2023-07-30T07:26:41;20.00;99.90
4461;DHT22;2243;48.812;9.232;2023-07-30T07:29:12;20.00;99.90
4461;DHT22;2243;48.812;9.232;2023-07-30T07:31:45;20.00;99.90
4461;DHT22;2243;48.812;9.232;2023-07-30T07:34:16;20.00;99.90
4461;DHT22;2243;48.812;9.232;2023-07-30T07:36:47;20.10;99.90
4461;DHT22;2243;48.812;9.232;2023-07-30T07:39:18;20.10;99.90
4461;DHT22;2243;48.812;9.232;2023-07-30T07:41:49;20.10;99.90
4461;DHT22;2243;48.812;9.232;2023-07-30T07:44:21;20.10;99.90
4461;DHT22;2243;48.812;9.232;2023-07-30T07:46:53;19.80;99.90
4461;DHT22;2243;48.812;9.232;2023-07-30T07:49:24;19.50;99.90
4461;DHT22;2243;48.812;9.232;2023-07-30T07:51:55;19.20;99.90
4461;DHT22;2243;48.812;9.232;2023-07-30T07:54:25;18.90;99.90
4461;DHT22;2243;48.812;9.232;2023-07-30T07:56:56;18.70;99.90
4461;DHT22;2243;48.812;9.232;2023-07-30T07:59:27;18.70;99.90
4461;DHT22;2243;48.812;9.232;2023-07-30T08:01:58;18.60;99.90
4461;DHT22;2243;48.812;9.232;2023-07-30T08:04:29;18.50;99.90
4461;DHT22;2243;48.812;9.232;2023-07-30T08:07:00;18.50;99.90
4461;DHT22;2243;48.812;9.232;2023-07-30T08:09:34;18.50;99.90
4461;DHT22;2243;48.812;9.232;2023-07-30T08:12:05;18.60;99.90
4461;DHT22;2243;48.812;9.232;2023-07-30T08:14:36;18.60;99.90
4461;DHT22;2243;48.812;9.232;2023-07-30T08:17:07;18.60;99.90
4461;DHT22;2243;48.812;9.232;2023-07-30T08:19:38;18.80;99.90
4461;DHT22;2243;48.812;9.232;2023-07-30T08:22:09;18.90;99.90
4461;DHT22;2243;48.812;9.232;2023-07-30T08:24:40;19.10;99.90
4461;DHT22;2243;48.812;9.232;2023-07-30T08:27:11;19.20;99.90
4461;DHT22;2243;48.812;9.232;2023-07-30T08:29:42;19.40;99.90
4461;DHT22;2243;48.812;9.232;2023-07-30T08:32:12;19.50;99.90
4461;DHT22;2243;48.812;9.232;2023-07-30T08:34:43;19.60;99.90
4461;DHT22;2243;48.812;9.232;2023-07-30T08:37:14;19.50;99.90
4461;DHT22;2243;48.812;9.232;2023-07-30T08:39:45;19.60;99.90
4461;DHT22;2243;48.812;9.232;2023-07-30T08:42:19;20.00;99.90
4461;DHT22;2243;48.812;9.232;2023-07-30T08:44:50;20.20;99.90
4461;DHT22;2243;48.812;9.232;2023-07-30T08:47:21;20.40;99.90
4461;DHT22;2243;48.812;9.232;2023-07-30T08:49:52;20.40;99.90
4461;DHT22;2243;48.812;9.232;2023-07-30T08:52:24;20.50;99.90
4461;DHT22;2243;48.812;9.232;2023-07-30T08:54:56;20.50;99.90
4461;DHT22;2243;48.812;9.232;2023-07-30T08:57:30;20.60;99.90
4461;DHT22;2243;48.812;9.232;2023-07-30T09:00:10;20.70;99.90
4461;DHT22;2243;48.812;9.232;2023-07-30T09:02:49;20.70;99.90
4461;DHT22;2243;48.812;9.232;2023-07-30T09:05:23;20.90;99.90
4461;DHT22;2243;48.812;9.232;2023-07-30T09:07:54;20.90;99.90
4461;DHT22;2243;48.812;9.232;2023-07-30T09:10:26;20.80;99.90
4461;DHT22;2243;48.812;9.232;2023-07-30T09:12:57;20.80;99.90
4461;DHT22;2243;48.812;9.232;2023-07-30T09:15:37;20.80;99.90
4461;DHT22;2243;48.812;9.232;2023-07-30T09:18:09;20.80;99.90
4461;DHT22;2243;48.812;9.232;2023-07-30T09:20:41;20.80;99.90
4461;DHT22;2243;48.812;9.232;2023-07-30T09:23:12;20.80;99.90
4461;DHT22;2243;48.812;9.232;2023-07-30T09:25:47;20.80;99.90
4461;DHT22;2243;48.812;9.232;2023-07-30T09:28:19;20.90;99.90
4461;DHT22;2243;48.812;9.232;2023-07-30T09:30:50;20.80;99.90
4461;DHT22;2243;48.812;9.232;2023-07-30T09:33:22;20.90;99.90
4461;DHT22;2243;48.812;9.232;2023-07-30T09:35:53;20.80;99.90
4461;DHT22;2243;48.812;9.232;2023-07-30T09:38:26;20.90;99.90
4461;DHT22;2243;48.812;9.232;2023-07-30T09:41:02;20.90;99.90
4461;DHT22;2243;48.812;9.232;2023-07-30T09:43:34;20.90;99.90
4461;DHT22;2243;48.812;9.232;2023-07-30T09:46:06;20.90;99.90
4461;DHT22;2243;48.812;9.232;2023-07-30T09:48:37;20.90;99.90
4461;DHT22;2243;48.812;9.232;2023-07-30T09:51:09;20.80;99.90
4461;DHT22;2243;48.812;9.232;2023-07-30T09:53:40;20.70;99.90
4461;DHT22;2243;48.812;9.232;2023-07-30T09:56:12;20.60;99.90
4461;DHT22;2243;48.812;9.232;2023-07-30T09:58:43;20.50;99.90
4461;DHT22;2243;48.812;9.232;2023-07-30T10:01:14;20.40;99.90
4461;DHT22;2243;48.812;9.232;2023-07-30T10:03:45;20.40;99.90
4461;DHT22;2243;48.812;9.232;2023-07-30T10:06:16;20.50;99.90
4461;DHT22;2243;48.812;9.232;2023-07-30T10:08:48;20.50;99.90
4461;DHT22;2243;48.812;9.232;2023-07-30T10:11:20;20.70;99.90
4461;DHT22;2243;48.812;9.232;2023-07-30T10:13:53;20.80;99.90
4461;DHT22;2243;48.812;9.232;2023-07-30T10:16:28;20.90;99.90
4461;DHT22;2243;48.812;9.232;2023-07-30T10:19:00;20.90;99.90
4461;DHT22;2243;48.812;9.232;2023-07-30T10:21:32;21.00;99.90
4461;DHT22;2243;48.812;9.232;2023-07-30T10:24:04;21.10;99.90
4461;DHT22;2243;48.812;9.232;2023-07-30T10:26:36;21.20;99.90
4461;DHT22;2243;48.812;9.232;2023-07-30T10:29:20;21.20;99.90
4461;DHT22;2243;48.812;9.232;2023-07-30T10:31:55;21.30;99.90
4461;DHT22;2243;48.812;9.232;2023-07-30T10:34:46;21.30;99.90
4461;DHT22;2243;48.812;9.232;2023-07-30T10:37:20;21.40;99.90
4461;DHT22;2243;48.812;9.232;2023-07-30T10:39:51;21.40;99.90
4461;DHT22;2243;48.812;9.232;2023-07-30T10:42:22;21.60;99.90
4461;DHT22;2243;48.812;9.232;2023-07-30T10:44:57;21.70;99.90
4461;DHT22;2243;48.812;9.232;2023-07-30T10:47:28;21.80;99.90
4461;DHT22;2243;48.812;9.232;2023-07-30T10:50:07;21.80;99.90
4461;DHT22;2243;48.812;9.232;2023-07-30T10:52:41;21.80;99.90
4461;DHT22;2243;48.812;9.232;2023-07-30T10:55:12;21.80;99.90
4461;DHT22;2243;48.812;9.232;2023-07-30T10:57:43;21.80;99.90
4461;DHT22;2243;48.812;9.232;2023-07-30T11:00:14;21.80;99.90
4461;DHT22;2243;48.812;9.232;2023-07-30T11:02:53;21.90;99.90
4461;DHT22;2243;48.812;9.232;2023-07-30T11:05:24;21.90;99.90
4461;DHT22;2243;48.812;9.232;2023-07-30T11:07:56;22.00;99.90
4461;DHT22;2243;48.812;9.232;2023-07-30T11:10:27;22.00;99.90
4461;DHT22;2243;48.812;9.232;2023-07-30T11:12:59;22.10;99.90
4461;DHT22;2243;48.812;9.232;2023-07-30T11:15:30;22.30;99.90
4461;DHT22;2243;48.812;9.232;2023-07-30T11:18:01;22.40;99.90
4461;DHT22;2243;48.812;9.232;2023-07-30T11:20:32;22.40;99.90
4461;DHT22;2243;48.812;9.232;2023-07-30T11:23:17;22.50;99.90
4461;DHT22;2243;48.812;9.232;2023-07-30T11:25:51;22.60;99.90
4461;DHT22;2243;48.812;9.232;2023-07-30T11:28:32;22.80;99.90
4461;DHT22;2243;48.812;9.232;2023-07-30T11:31:14;23.50;99.90
4461;DHT22;2243;48.812;9.232;2023-07-30T11:33:48;23.70;99.90
4461;DHT22;2243;48.812;9.232;2023-07-30T11:36:21;23.50;99.90
4461;DHT22;2243;48.812;9.232;2023-07-30T11:38:53;23.30;99.90
4461;DHT22;2243;48.812;9.232;2023-07-30T11:41:24;23.00;99.90
4461;DHT22;2243;48.812;9.232;2023-07-30T11:43:56;22.80;99.90
4461;DHT22;2243;48.812;9.232;2023-07-30T11:46:27;23.40;99.90
4461;DHT22;2243;48.812;9.232;2023-07-30T11:49:15;23.50;99.90
4461;DHT22;2243;48.812;9.232;2023-07-30T11:52:04;23.70;99.90
4461;DHT22;2243;48.812;9.232;2023-07-30T11:54:36;23.80;99.90
4461;DHT22;2243;48.812;9.232;2023-07-30T11:57:07;23.80;99.90
4461;DHT22;2243;48.812;9.232;2023-07-30T11:59:39;23.90;99.90
4461;DHT22;2243;48.812;9.232;2023-07-30T12:02:17;23.70;99.90
4461;DHT22;2243;48.812;9.232;2023-07-30T12:04:49;23.60;99.90
4461;DHT22;2243;48.812;9.232;2023-07-30T12:07:39;23.50;99.90
4461;DHT22;2243;48.812;9.232;2023-07-30T12:10:12;23.30;99.90
4461;DHT22;2243;48.812;9.232;2023-07-30T12:12:45;23.40;99.90
4461;DHT22;2243;48.812;9.232;2023-07-30T12:15:16;23.50;99.90
4461;DHT22;2243;48.812;9.232;2023-07-30T12:17:47;23.50;99.90
4461;DHT22;2243;48.812;9.232;2023-07-30T12:20:18;23.50;99.90
4461;DHT22;2243;48.812;9.232;2023-07-30T12:22:49;23.50;99.90
4461;DHT22;2243;48.812;9.232;2023-07-30T12:25:20;23.40;99.90
4461;DHT22;2243;48.812;9.232;2023-07-30T12:27:51;23.50;99.90
4461;DHT22;2243;48.812;9.232;2023-07-30T12:30:22;23.60;99.90
4461;DHT22;2243;48.812;9.232;2023-07-30T12:32:54;23.80;99.90
4461;DHT22;2243;48.812;9.232;2023-07-30T12:35:25;23.70;99.90
4461;DHT22;2243;48.812;9.232;2023-07-30T12:37:57;23.70;99.90
4461;DHT22;2243;48.812;9.232;2023-07-30T12:40:29;23.80;99.90
4461;DHT22;2243;48.812;9.232;2023-07-30T12:43:04;23.70;99.90
4461;DHT22;2243;48.812;9.232;2023-07-30T12:45:35;23.60;99.90
4461;DHT22;2243;48.812;9.232;2023-07-30T12:48:06;23.60;99.90
4461;DHT22;2243;48.812;9.232;2023-07-30T12:50:38;23.40;99.90
4461;DHT22;2243;48.812;9.232;2023-07-30T12:53:09;23.30;99.90
4461;DHT22;2243;48.812;9.232;2023-07-30T12:55:41;23.30;99.90
4461;DHT22;2243;48.812;9.232;2023-07-30T12:58:12;23.40;99.90
4461;DHT22;2243;48.812;9.232;2023-07-30T13:00:43;23.60;99.90
4461;DHT22;2243;48.812;9.232;2023-07-30T13:03:14;23.80;99.80
4461;DHT22;2243;48.812;9.232;2023-07-30T13:05:48;23.80;99.70
4461;DHT22;2243;48.812;9.232;2023-07-30T13:08:20;23.80;99.40
4461;DHT22;2243;48.812;9.232;2023-07-30T13:10:51;23.70;98.90
4461;DHT22;2243;48.812;9.232;2023-07-30T13:13:22;23.60;98.90
4461;DHT22;2243;48.812;9.232;2023-07-30T13:15:54;23.80;98.70
4461;DHT22;2243;48.812;9.232;2023-07-30T13:18:29;23.90;98.60
4461;DHT22;2243;48.812;9.232;2023-07-30T13:21:00;24.00;97.50
4461;DHT22;2243;48.812;9.232;2023-07-30T13:23:31;23.80;98.30
4461;DHT22;2243;48.812;9.232;2023-07-30T13:26:03;23.80;97.90
4461;DHT22;2243;48.812;9.232;2023-07-30T13:28:34;23.70;97.90
4461;DHT22;2243;48.812;9.232;2023-07-30T13:31:05;23.80;98.40
4461;DHT22;2243;48.812;9.232;2023-07-30T13:33:36;24.00;98.10
4461;DHT22;2243;48.812;9.232;2023-07-30T13:36:07;24.10;97.70
4461;DHT22;2243;48.812;9.232;2023-07-30T13:38:39;24.20;97.90
4461;DHT22;2243;48.812;9.232;2023-07-30T13:41:13;24.30;97.40
4461;DHT22;2243;48.812;9.232;2023-07-30T13:43:45;24.30;97.80
4461;DHT22;2243;48.812;9.232;2023-07-30T13:46:19;24.30;97.50
4461;DHT22;2243;48.812;9.232;2023-07-30T13:48:50;24.20;97.80
4461;DHT22;2243;48.812;9.232;2023-07-30T13:51:20;24.00;98.00
4461;DHT22;2243;48.812;9.232;2023-07-30T13:53:51;23.70;98.30
4461;DHT22;2243;48.812;9.232;2023-07-30T13:56:22;23.50;98.30
4461;DHT22;2243;48.812;9.232;2023-07-30T13:58:53;23.40;98.50
4461;DHT22;2243;48.812;9.232;2023-07-30T14:01:25;23.40;98.40
4461;DHT22;2243;48.812;9.232;2023-07-30T14:03:56;23.60;98.00
4461;DHT22;2243;48.812;9.232;2023-07-30T14:06:27;23.70;97.90
4461;DHT22;2243;48.812;9.232;2023-07-30T14:08:59;23.70;97.30
4461;DHT22;2243;48.812;9.232;2023-07-30T14:11:31;23.70;97.40
4461;DHT22;2243;48.812;9.232;2023-07-30T14:14:02;23.90;97.00
4461;DHT22;2243;48.812;9.232;2023-07-30T14:16:33;24.10;96.80
4461;DHT22;2243;48.812;9.232;2023-07-30T14:19:04;23.90;96.90
4461;DHT22;2243;48.812;9.232;2023-07-30T14:21:35;23.90;96.90
4461;DHT22;2243;48.812;9.232;2023-07-30T14:24:06;23.90;96.70
4461;DHT22;2243;48.812;9.232;2023-07-30T14:26:37;23.70;97.20
4461;DHT22;2243;48.812;9.232;2023-07-30T14:29:08;23.80;97.20
4461;DHT22;2243;48.812;9.232;2023-07-30T14:31:39;23.90;96.60
4461;DHT22;2243;48.812;9.232;2023-07-30T14:34:11;23.80;96.30
4461;DHT22;2243;48.812;9.232;2023-07-30T14:36:42;23.70;96.20
4461;DHT22;2243;48.812;9.232;2023-07-30T14:39:13;23.70;96.20
4461;DHT22;2243;48.812;9.232;2023-07-30T14:41:46;23.80;96.00
4461;DHT22;2243;48.812;9.232;2023-07-30T14:44:17;23.80;96.40
4461;DHT22;2243;48.812;9.232;2023-07-30T14:46:48;23.80;96.20
4461;DHT22;2243;48.812;9.232;2023-07-30T14:49:19;23.90;96.00
4461;DHT22;2243;48.812;9.232;2023-07-30T14:51:50;23.90;95.90
4461;DHT22;2243;48.812;9.232;2023-07-30T14:54:23;23.80;96.00
4461;DHT22;2243;48.812;9.232;2023-07-30T14:56:54;24.00;95.60
4461;DHT22;2243;48.812;9.232;2023-07-30T14:59:26;24.20;95.40
4461;DHT22;2243;48.812;9.232;2023-07-30T15:01:56;24.30;94.80
4461;DHT22;2243;48.812;9.232;2023-07-30T15:04:27;24.30;94.90
4461;DHT22;2243;48.812;9.232;2023-07-30T15:06:59;24.20;94.80
4461;DHT22;2243;48.812;9.232;2023-07-30T15:09:33;24.20;95.10
4461;DHT22;2243;48.812;9.232;2023-07-30T15:12:06;24.30;94.40
4461;DHT22;2243;48.812;9.232;2023-07-30T15:14:38;24.40;93.60
4461;DHT22;2243;48.812;9.232;2023-07-30T15:17:09;24.50;93.60
4461;DHT22;2243;48.812;9.232;2023-07-30T15:19:40;24.50;93.20
4461;DHT22;2243;48.812;9.232;2023-07-30T15:22:11;24.40;93.30
4461;DHT22;2243;48.812;9.232;2023-07-30T15:24:42;24.30;93.40
4461;DHT22;2243;48.812;9.232;2023-07-30T15:27:13;24.20;93.60
4461;DHT22;2243;48.812;9.232;2023-07-30T15:29:44;24.10;94.00
4461;DHT22;2243;48.812;9.232;2023-07-30T15:32:15;24.10;93.60
4461;DHT22;2243;48.812;9.232;2023-07-30T15:34:49;24.10;94.20
4461;DHT22;2243;48.812;9.232;2023-07-30T15:37:22;24.20;93.60
4461;DHT22;2243;48.812;9.232;2023-07-30T15:39:53;24.20;92.70
4461;DHT22;2243;48.812;9.232;2023-07-30T15:42:24;24.00;92.00
4461;DHT22;2243;48.812;9.232;2023-07-30T15:44:58;23.90;92.00
4461;DHT22;2243;48.812;9.232;2023-07-30T15:47:29;23.80;91.80
4461;DHT22;2243;48.812;9.232;2023-07-30T15:50:01;23.80;92.10
4461;DHT22;2243;48.812;9.232;2023-07-30T15:52:32;23.70;92.00
4461;DHT22;2243;48.812;9.232;2023-07-30T15:55:03;23.60;91.90
4461;DHT22;2243;48.812;9.232;2023-07-30T15:57:34;23.60;92.30
4461;DHT22;2243;48.812;9.232;2023-07-30T16:00:07;23.70;92.30
4461;DHT22;2243;48.812;9.232;2023-07-30T16:02:39;23.70;92.40
4461;DHT22;2243;48.812;9.232;2023-07-30T16:05:12;23.80;92.50
4461;DHT22;2243;48.812;9.232;2023-07-30T16:07:43;23.80;91.90
4461;DHT22;2243;48.812;9.232;2023-07-30T16:10:14;24.00;92.40
4461;DHT22;2243;48.812;9.232;2023-07-30T16:12:45;24.20;91.90
4461;DHT22;2243;48.812;9.232;2023-07-30T16:15:16;24.20;91.60
4461;DHT22;2243;48.812;9.232;2023-07-30T16:17:47;24.10;91.70
4461;DHT22;2243;48.812;9.232;2023-07-30T16:20:18;24.00;91.70
4461;DHT22;2243;48.812;9.232;2023-07-30T16:22:49;23.90;91.90
4461;DHT22;2243;48.812;9.232;2023-07-30T16:25:20;24.10;91.80
4461;DHT22;2243;48.812;9.232;2023-07-30T16:27:51;24.20;91.40
4461;DHT22;2243;48.812;9.232;2023-07-30T16:30:22;24.20;91.50